createdAt,value
2023-02-19T00:00:05.673Z,84.24
2023-02-19T00:00:17.964Z,84.01
2023-02-19T00:00:29.872Z,84.02
2023-02-19T00:00:41.775Z,84.39
2023-02-19T00:00:53.723Z,83.92
2023-02-19T00:01:14.282Z,83.98
2023-02-19T00:01:34.962Z,83.95
2023-02-19T00:01:47.519Z,84.28
2023-02-19T00:01:59.433Z,83.83
2023-02-19T00:02:11.408Z,83.83
2023-02-19T00:02:23.437Z,83.91
2023-02-19T00:02:35.675Z,84.04
2023-02-19T00:02:48.245Z,83.71
2023-02-19T00:03:00.173Z,83.52
2023-02-19T00:03:12.086Z,83.95
2023-02-19T00:03:24.274Z,83.78
2023-02-19T00:03:37.619Z,83.82
2023-02-19T00:03:52.417Z,83.88
2023-02-19T00:04:18.312Z,83.85
2023-02-19T00:04:30.247Z,83.58
2023-02-19T00:04:42.228Z,83.42
2023-02-19T00:04:57.030Z,83.36
2023-02-19T00:05:10.068Z,83.63
2023-02-19T00:05:22.138Z,83.83
2023-02-19T00:05:35.264Z,84.42
2023-02-19T00:05:47.200Z,84.16
2023-02-19T00:06:02.698Z,84.24
2023-02-19T00:06:14.599Z,84.09
2023-02-19T00:06:28.375Z,84.10
2023-02-19T00:06:40.800Z,84.27
2023-02-19T00:06:52.722Z,83.97
2023-02-19T00:07:06.268Z,83.86
2023-02-19T00:07:18.325Z,83.56
2023-02-19T00:07:30.258Z,83.59
2023-02-19T00:07:43.377Z,83.82
2023-02-19T00:07:55.315Z,83.76
2023-02-19T00:08:08.377Z,83.84
2023-02-19T00:08:20.297Z,84.16
2023-02-19T00:08:33.819Z,83.85
2023-02-19T00:08:46.127Z,83.56
2023-02-19T00:08:58.541Z,83.58
2023-02-19T00:09:15.402Z,83.55
2023-02-19T00:09:27.650Z,83.63
2023-02-19T00:09:39.650Z,84.05
2023-02-19T00:09:51.532Z,83.94
2023-02-19T00:10:03.699Z,83.84
2023-02-19T00:10:15.892Z,83.98
2023-02-19T00:10:27.795Z,83.60
2023-02-19T00:10:39.761Z,83.77
2023-02-19T00:10:51.751Z,83.34
2023-02-19T00:11:07.261Z,83.47
2023-02-19T00:11:21.945Z,83.72
2023-02-19T00:11:35.402Z,83.53
2023-02-19T00:11:47.951Z,83.85
2023-02-19T00:11:59.928Z,83.76
2023-02-19T00:12:11.917Z,83.79
2023-02-19T00:12:23.825Z,83.98
2023-02-19T00:12:35.719Z,83.98
2023-02-19T00:12:47.643Z,84.54
2023-02-19T00:12:59.583Z,84.71
2023-02-19T00:13:12.461Z,84.40
2023-02-19T00:13:27.062Z,84.81
2023-02-19T00:13:41.160Z,84.59
2023-02-19T00:13:55.386Z,84.70
2023-02-19T00:14:08.287Z,84.75
2023-02-19T00:14:21.362Z,84.06
2023-02-19T00:14:33.255Z,84.09
2023-02-19T00:14:45.145Z,83.93
2023-02-19T00:14:58.384Z,84.40
2023-02-19T00:15:10.277Z,84.34
2023-02-19T00:15:22.204Z,84.40
2023-02-19T00:15:35.894Z,84.38
2023-02-19T00:15:47.898Z,84.19
2023-02-19T00:16:08.999Z,83.93
2023-02-19T00:16:24.895Z,84.15
2023-02-19T00:16:39.339Z,84.10
2023-02-19T00:16:51.323Z,84.05
2023-02-19T00:17:03.363Z,83.78
2023-02-19T00:17:15.290Z,84.16
2023-02-19T00:17:27.234Z,83.84
2023-02-19T00:17:39.167Z,83.94
2023-02-19T00:17:51.059Z,84.23
2023-02-19T00:18:06.085Z,84.22
2023-02-19T00:18:18.969Z,84.58
2023-02-19T00:18:30.854Z,84.44
2023-02-19T00:18:43.695Z,84.62
2023-02-19T00:18:57.844Z,84.61
2023-02-19T00:19:14.865Z,84.57
2023-02-19T00:19:28.122Z,84.54
2023-02-19T00:19:40.052Z,84.25
2023-02-19T00:19:53.101Z,84.06
2023-02-19T00:20:05.208Z,84.33
2023-02-19T00:20:17.199Z,84.11
2023-02-19T00:20:29.140Z,84.06
2023-02-19T00:20:41.051Z,84.37
2023-02-19T00:20:56.046Z,84.49
2023-02-19T00:21:08.715Z,84.50
2023-02-19T00:21:21.244Z,83.95
2023-02-19T00:21:33.835Z,84.50
2023-02-19T00:21:46.018Z,84.45
2023-02-19T00:21:57.950Z,84.75
2023-02-19T00:22:09.912Z,84.87
2023-02-19T00:22:21.852Z,84.65
2023-02-19T00:22:33.774Z,84.62
2023-02-19T00:22:45.718Z,84.77
2023-02-19T00:22:57.678Z,84.64
2023-02-19T00:23:09.627Z,84.82
2023-02-19T00:23:21.655Z,84.94
2023-02-19T00:23:34.208Z,84.76
2023-02-19T00:23:54.252Z,85.07
2023-02-19T00:24:08.459Z,84.93
2023-02-19T00:24:21.509Z,84.67
2023-02-19T00:24:33.393Z,84.61
2023-02-19T00:24:45.417Z,84.59
2023-02-19T00:24:57.980Z,84.50
2023-02-19T00:25:10.836Z,84.84
2023-02-19T00:25:22.767Z,85.00
2023-02-19T00:25:37.954Z,85.17
2023-02-19T00:25:49.840Z,85.35
2023-02-19T00:26:17.535Z,85.67
2023-02-19T00:26:30.447Z,85.25
2023-02-19T00:26:43.974Z,85.15
2023-02-19T00:26:55.925Z,85.46
2023-02-19T00:27:07.828Z,85.40
2023-02-19T00:27:19.831Z,85.62
2023-02-19T00:27:32.695Z,85.75
2023-02-19T00:27:44.682Z,85.64
2023-02-19T00:27:56.800Z,85.59
2023-02-19T00:28:08.740Z,85.84
2023-02-19T00:28:21.557Z,86.10
2023-02-19T00:28:33.816Z,86.29
2023-02-19T00:28:47.325Z,86.66
2023-02-19T00:29:01.066Z,86.88
2023-02-19T00:29:15.651Z,87.06
2023-02-19T00:29:27.579Z,87.82
2023-02-19T00:29:39.562Z,87.88
2023-02-19T00:29:52.405Z,88.12
2023-02-19T00:30:04.603Z,87.81
2023-02-19T00:30:16.658Z,88.06
2023-02-19T00:30:28.642Z,88.07
2023-02-19T00:30:40.656Z,88.05
2023-02-19T00:30:52.630Z,88.54
2023-02-19T00:31:09.820Z,88.86
2023-02-19T00:31:26.014Z,89.19
2023-02-19T00:31:38.116Z,89.33
2023-02-19T00:31:50.181Z,89.98
2023-02-19T00:32:05.809Z,89.95
2023-02-19T00:32:17.834Z,90.57
2023-02-19T00:32:29.746Z,90.38
2023-02-19T00:32:41.627Z,90.66
2023-02-19T00:32:55.642Z,90.78
2023-02-19T00:33:08.589Z,90.58
2023-02-19T00:33:20.498Z,90.79
2023-02-19T00:33:32.582Z,90.84
2023-02-19T00:33:45.881Z,91.58
2023-02-19T00:34:00.135Z,91.44
2023-02-19T00:34:13.101Z,91.50
2023-02-19T00:34:25.103Z,92.04
2023-02-19T00:34:37.067Z,91.82
2023-02-19T00:34:48.993Z,91.86
2023-02-19T00:35:01.436Z,91.60
2023-02-19T00:35:13.461Z,91.50
2023-02-19T00:35:25.345Z,91.11
2023-02-19T00:35:37.518Z,91.24
2023-02-19T00:35:49.419Z,91.11
2023-02-19T00:36:03.048Z,91.26
2023-02-19T00:36:15.589Z,91.14
2023-02-19T00:36:28.608Z,91.15
2023-02-19T00:36:41.754Z,91.17
2023-02-19T00:36:53.670Z,91.32
2023-02-19T00:37:05.629Z,91.18
2023-02-19T00:37:17.734Z,91.16
2023-02-19T00:37:29.809Z,91.07
2023-02-19T00:37:41.714Z,90.90
2023-02-19T00:37:53.610Z,91.02
2023-02-19T00:38:05.746Z,90.81
2023-02-19T00:38:17.658Z,90.92
2023-02-19T00:38:29.903Z,90.69
2023-02-19T00:38:43.353Z,90.79
2023-02-19T00:38:55.423Z,90.77
2023-02-19T00:39:10.848Z,90.72
2023-02-19T00:39:22.855Z,90.93
2023-02-19T00:39:34.812Z,90.49
2023-02-19T00:39:46.841Z,90.71
2023-02-19T00:39:58.748Z,90.66
2023-02-19T00:40:11.002Z,90.83
2023-02-19T00:40:25.907Z,90.50
2023-02-19T00:40:38.608Z,90.46
2023-02-19T00:40:50.511Z,90.31
2023-02-19T00:41:18.934Z,90.14
2023-02-19T00:41:33.234Z,89.82
2023-02-19T00:41:46.389Z,90.00
2023-02-19T00:42:00.787Z,89.79
2023-02-19T00:42:12.683Z,90.03
2023-02-19T00:42:25.767Z,89.98
2023-02-19T00:42:37.813Z,90.00
2023-02-19T00:42:49.752Z,89.87
2023-02-19T00:43:01.678Z,89.92
2023-02-19T00:43:16.581Z,89.89
2023-02-19T00:43:28.512Z,90.00
2023-02-19T00:43:40.470Z,90.07
2023-02-19T00:43:58.002Z,89.95
2023-02-19T00:44:11.572Z,89.79
2023-02-19T00:44:23.511Z,89.64
2023-02-19T00:44:35.478Z,89.71
2023-02-19T00:44:47.371Z,89.76
2023-02-19T00:44:59.314Z,89.95
2023-02-19T00:45:11.215Z,89.82
2023-02-19T00:45:23.483Z,89.64
2023-02-19T00:45:35.695Z,89.58
2023-02-19T00:45:47.683Z,89.46
2023-02-19T00:45:59.641Z,89.41
2023-02-19T00:46:11.740Z,89.72
2023-02-19T00:46:25.805Z,89.53
2023-02-19T00:46:40.672Z,89.49
2023-02-19T00:46:52.682Z,89.05
2023-02-19T00:47:04.733Z,89.34
2023-02-19T00:47:16.635Z,89.15
2023-02-19T00:47:28.531Z,89.25
2023-02-19T00:47:40.444Z,89.23
2023-02-19T00:47:53.146Z,89.04
2023-02-19T00:48:05.160Z,89.08
2023-02-19T00:48:19.066Z,89.07
2023-02-19T00:48:30.955Z,89.11
2023-02-19T00:48:43.429Z,89.16
2023-02-19T00:48:56.293Z,88.99
2023-02-19T00:49:11.794Z,89.10
2023-02-19T00:49:23.845Z,88.72
2023-02-19T00:49:35.816Z,89.04
2023-02-19T00:49:47.722Z,88.55
2023-02-19T00:49:59.643Z,88.66
2023-02-19T00:50:11.631Z,88.57
2023-02-19T00:50:23.573Z,88.25
2023-02-19T00:50:35.569Z,88.02
2023-02-19T00:50:47.751Z,88.03
2023-02-19T00:50:59.711Z,88.03
2023-02-19T00:51:12.070Z,88.32
2023-02-19T00:51:28.039Z,88.07
2023-02-19T00:51:39.984Z,88.32
2023-02-19T00:51:52.693Z,88.15
2023-02-19T00:52:07.272Z,88.50
2023-02-19T00:52:19.188Z,88.79
2023-02-19T00:52:31.168Z,88.77
2023-02-19T00:52:43.098Z,88.95
2023-02-19T00:52:55.177Z,88.55
2023-02-19T00:53:07.125Z,88.91
2023-02-19T00:53:19.330Z,88.17
2023-02-19T00:53:31.283Z,88.39
2023-02-19T00:53:43.527Z,88.53
2023-02-19T00:53:55.573Z,88.09
2023-02-19T00:54:07.633Z,88.15
2023-02-19T00:54:19.686Z,87.94
2023-02-19T00:54:32.829Z,87.81
2023-02-19T00:54:44.781Z,87.80
2023-02-19T00:54:56.728Z,87.28
2023-02-19T00:55:08.703Z,87.33
2023-02-19T00:55:20.649Z,87.40
2023-02-19T00:55:32.564Z,87.41
2023-02-19T00:55:44.529Z,87.35
2023-02-19T00:55:56.476Z,87.61
2023-02-19T00:56:08.949Z,87.62
2023-02-19T00:56:21.405Z,87.67
2023-02-19T00:56:34.082Z,88.12
2023-02-19T00:56:47.013Z,88.13
2023-02-19T00:56:58.988Z,88.23
2023-02-19T00:57:10.991Z,88.65
2023-02-19T00:57:22.935Z,88.61
2023-02-19T00:57:34.885Z,89.24
2023-02-19T00:57:46.834Z,89.51
2023-02-19T00:57:58.734Z,89.59
2023-02-19T00:58:10.685Z,89.72
2023-02-19T00:58:22.600Z,89.66
2023-02-19T00:58:35.203Z,89.68
2023-02-19T00:58:47.801Z,89.98
2023-02-19T00:58:59.816Z,89.80
2023-02-19T00:59:12.246Z,89.94
2023-02-19T00:59:24.181Z,89.88
2023-02-19T00:59:36.828Z,89.90
2023-02-19T00:59:48.799Z,89.75
2023-02-19T01:00:00.787Z,89.74
2023-02-19T01:00:15.371Z,89.54
2023-02-19T01:00:27.322Z,89.19
2023-02-19T01:00:39.305Z,88.94
2023-02-19T01:00:51.193Z,88.60
2023-02-19T01:01:03.251Z,88.34
2023-02-19T01:01:16.621Z,88.65
2023-02-19T01:01:28.572Z,88.44
2023-02-19T01:01:41.103Z,88.61
2023-02-19T01:01:53.042Z,88.80
2023-02-19T01:02:05.046Z,88.86
2023-02-19T01:02:17.119Z,88.56
2023-02-19T01:02:29.060Z,88.79
2023-02-19T01:02:41.048Z,88.84
2023-02-19T01:02:53.048Z,88.62
2023-02-19T01:03:04.984Z,88.66
2023-02-19T01:03:16.947Z,88.69
2023-02-19T01:03:29.115Z,88.29
2023-02-19T01:03:41.209Z,88.72
2023-02-19T01:03:53.233Z,88.77
2023-02-19T01:04:06.662Z,88.39
2023-02-19T01:04:18.924Z,88.65
2023-02-19T01:04:30.954Z,88.37
2023-02-19T01:04:42.954Z,88.58
2023-02-19T01:04:54.994Z,88.87
2023-02-19T01:05:07.173Z,88.98
2023-02-19T01:05:19.205Z,88.79
2023-02-19T01:05:31.156Z,88.85
2023-02-19T01:05:43.094Z,88.43
2023-02-19T01:05:55.161Z,88.28
2023-02-19T01:06:09.274Z,88.11
2023-02-19T01:06:21.384Z,88.03
2023-02-19T01:06:34.566Z,88.52
2023-02-19T01:06:48.563Z,88.52
2023-02-19T01:07:00.560Z,89.02
2023-02-19T01:07:12.477Z,89.39
2023-02-19T01:07:24.444Z,89.25
2023-02-19T01:07:37.230Z,88.97
2023-02-19T01:07:49.200Z,89.20
2023-02-19T01:08:01.091Z,88.97
2023-02-19T01:08:13.208Z,88.96
2023-02-19T01:08:28.237Z,88.89
2023-02-19T01:08:40.550Z,88.50
2023-02-19T01:08:52.520Z,88.87
2023-02-19T01:09:05.518Z,88.44
2023-02-19T01:09:17.546Z,88.48
2023-02-19T01:09:29.480Z,88.52
2023-02-19T01:09:41.463Z,88.92
2023-02-19T01:09:53.424Z,88.86
2023-02-19T01:10:05.872Z,88.74
2023-02-19T01:10:17.920Z,88.74
2023-02-19T01:10:29.863Z,89.18
2023-02-19T01:10:41.970Z,89.06
2023-02-19T01:10:53.934Z,88.57
2023-02-19T01:11:07.602Z,88.57
2023-02-19T01:11:20.407Z,88.66
2023-02-19T01:11:32.496Z,88.37
2023-02-19T01:11:44.425Z,88.36
2023-02-19T01:11:56.341Z,88.59
2023-02-19T01:12:08.298Z,88.42
2023-02-19T01:12:20.237Z,88.51
2023-02-19T01:12:35.343Z,88.14
2023-02-19T01:12:47.249Z,88.22
2023-02-19T01:12:59.190Z,88.36
2023-02-19T01:13:14.085Z,88.02
2023-02-19T01:13:26.576Z,88.21
2023-02-19T01:13:39.671Z,87.89
2023-02-19T01:13:51.566Z,88.17
2023-02-19T01:14:06.161Z,87.77
2023-02-19T01:14:18.128Z,87.61
2023-02-19T01:14:30.160Z,88.27
2023-02-19T01:14:42.129Z,88.11
2023-02-19T01:14:55.028Z,88.51
2023-02-19T01:15:07.299Z,88.74
2023-02-19T01:15:19.258Z,88.97
2023-02-19T01:15:34.363Z,89.29
2023-02-19T01:15:46.383Z,89.39
2023-02-19T01:16:08.428Z,89.85
2023-02-19T01:16:24.698Z,90.33
2023-02-19T01:16:36.867Z,90.34
2023-02-19T01:16:48.788Z,90.59
2023-02-19T01:17:00.754Z,90.85
2023-02-19T01:17:12.738Z,90.94
2023-02-19T01:17:24.867Z,91.31
2023-02-19T01:17:36.889Z,91.16
2023-02-19T01:17:49.065Z,91.05
2023-02-19T01:18:01.062Z,91.54
2023-02-19T01:18:16.149Z,91.23
2023-02-19T01:18:28.085Z,91.97
2023-02-19T01:18:40.496Z,91.92
2023-02-19T01:18:52.816Z,92.02
2023-02-19T01:19:06.945Z,91.94
2023-02-19T01:19:18.840Z,92.45
2023-02-19T01:19:30.750Z,92.40
2023-02-19T01:19:42.692Z,92.62
2023-02-19T01:19:54.628Z,92.87
2023-02-19T01:20:06.765Z,92.89
2023-02-19T01:20:18.721Z,93.34
2023-02-19T01:20:31.273Z,93.40
2023-02-19T01:20:44.652Z,93.10
2023-02-19T01:20:56.592Z,93.31
2023-02-19T01:21:12.894Z,93.44
2023-02-19T01:21:26.879Z,93.49
2023-02-19T01:21:40.234Z,93.42
2023-02-19T01:21:52.178Z,93.39
2023-02-19T01:22:04.125Z,93.30
2023-02-19T01:22:16.071Z,93.15
2023-02-19T01:22:28.040Z,93.26
2023-02-19T01:22:39.931Z,93.74
2023-02-19T01:22:52.117Z,93.54
2023-02-19T01:23:04.166Z,93.80
2023-02-19T01:23:16.067Z,94.21
2023-02-19T01:23:28.051Z,94.11
2023-02-19T01:23:40.414Z,94.08
2023-02-19T01:23:52.873Z,94.53
2023-02-19T01:24:07.304Z,94.74
2023-02-19T01:24:19.466Z,95.08
2023-02-19T01:24:31.377Z,95.64
2023-02-19T01:24:43.295Z,95.39
2023-02-19T01:24:55.241Z,95.45
2023-02-19T01:25:07.291Z,95.47
2023-02-19T01:25:19.515Z,94.93
2023-02-19T01:25:31.471Z,94.87
2023-02-19T01:25:43.486Z,95.04
2023-02-19T01:25:55.393Z,95.06
2023-02-19T01:26:11.622Z,95.51
2023-02-19T01:26:26.086Z,95.57
2023-02-19T01:26:38.091Z,95.83
2023-02-19T01:26:50.055Z,96.10
2023-02-19T01:27:02.013Z,96.06
2023-02-19T01:27:13.916Z,96.02
2023-02-19T01:27:25.822Z,95.56
2023-02-19T01:27:37.717Z,95.17
2023-02-19T01:27:49.705Z,95.24
2023-02-19T01:28:01.641Z,95.09
2023-02-19T01:28:13.578Z,94.83
2023-02-19T01:28:25.476Z,94.89
2023-02-19T01:28:37.453Z,94.79
2023-02-19T01:28:49.584Z,94.99
2023-02-19T01:29:02.220Z,95.16
2023-02-19T01:29:14.156Z,95.11
2023-02-19T01:29:26.120Z,95.00
2023-02-19T01:29:38.170Z,94.21
2023-02-19T01:29:50.081Z,94.60
2023-02-19T01:30:02.020Z,94.28
2023-02-19T01:30:14.142Z,94.13
2023-02-19T01:30:27.858Z,94.01
2023-02-19T01:30:40.035Z,94.53
2023-02-19T01:30:51.976Z,94.41
2023-02-19T01:31:06.019Z,94.54
2023-02-19T01:31:20.984Z,94.85
2023-02-19T01:31:33.418Z,94.75
2023-02-19T01:31:45.575Z,94.63
2023-02-19T01:31:57.585Z,94.12
2023-02-19T01:32:12.306Z,94.32
2023-02-19T01:32:24.300Z,93.97
2023-02-19T01:32:36.319Z,94.45
2023-02-19T01:32:48.396Z,94.65
2023-02-19T01:33:00.417Z,94.25
2023-02-19T01:33:12.344Z,94.44
2023-02-19T01:33:24.247Z,94.97
2023-02-19T01:33:36.193Z,94.25
2023-02-19T01:34:02.289Z,94.08
2023-02-19T01:34:14.232Z,93.50
2023-02-19T01:34:26.998Z,93.57
2023-02-19T01:34:39.054Z,93.47
2023-02-19T01:34:50.986Z,93.21
2023-02-19T01:35:03.139Z,92.73
2023-02-19T01:35:15.137Z,92.88
2023-02-19T01:35:27.013Z,92.19
2023-02-19T01:35:39.518Z,92.10
2023-02-19T01:35:51.423Z,91.86
2023-02-19T01:36:05.829Z,91.83
2023-02-19T01:36:17.956Z,91.91
2023-02-19T01:36:33.341Z,91.87
2023-02-19T01:36:45.258Z,91.67
2023-02-19T01:36:57.278Z,91.99
2023-02-19T01:37:12.870Z,91.80
2023-02-19T01:37:24.836Z,91.59
2023-02-19T01:37:37.358Z,91.30
2023-02-19T01:37:49.396Z,91.38
2023-02-19T01:38:01.352Z,91.18
2023-02-19T01:38:13.269Z,91.20
2023-02-19T01:38:25.176Z,91.39
2023-02-19T01:38:37.184Z,91.33
2023-02-19T01:38:49.775Z,91.53
2023-02-19T01:39:05.012Z,91.27
2023-02-19T01:39:16.925Z,90.97
2023-02-19T01:39:28.900Z,90.96
2023-02-19T01:39:40.856Z,90.89
2023-02-19T01:39:52.755Z,90.57
2023-02-19T01:40:05.116Z,90.80
2023-02-19T01:40:17.131Z,90.87
2023-02-19T01:40:29.252Z,90.88
2023-02-19T01:40:41.277Z,90.67
2023-02-19T01:40:57.424Z,90.54
2023-02-19T01:41:13.595Z,90.14
2023-02-19T01:41:25.858Z,90.48
2023-02-19T01:41:40.347Z,90.45
2023-02-19T01:41:52.238Z,90.77
2023-02-19T01:42:06.115Z,90.88
2023-02-19T01:42:18.041Z,91.22
2023-02-19T01:42:29.983Z,90.98
2023-02-19T01:42:45.141Z,90.93
2023-02-19T01:42:57.034Z,90.64
2023-02-19T01:43:16.188Z,90.90
2023-02-19T01:43:28.750Z,91.11
2023-02-19T01:44:00.625Z,90.68
2023-02-19T01:44:12.630Z,90.87
2023-02-19T01:44:24.519Z,90.91
2023-02-19T01:44:36.347Z,90.88
2023-02-19T01:44:48.199Z,90.76
2023-02-19T01:45:28.538Z,90.88
2023-02-19T01:45:44.245Z,91.25
2023-02-19T01:45:56.247Z,91.48
2023-02-19T01:46:08.221Z,91.65
2023-02-19T01:46:20.165Z,92.25
2023-02-19T01:46:33.997Z,92.25
2023-02-19T01:46:48.446Z,92.22
2023-02-19T01:47:01.824Z,92.39
2023-02-19T01:47:16.046Z,93.07
2023-02-19T01:47:27.992Z,93.36
2023-02-19T01:47:40.245Z,93.50
2023-02-19T01:47:58.701Z,93.45
2023-02-19T01:48:23.594Z,93.84
2023-02-19T01:48:39.202Z,93.63
2023-02-19T01:48:51.257Z,93.45
2023-02-19T01:49:14.999Z,93.43
2023-02-19T01:49:34.138Z,93.08
2023-02-19T01:49:56.794Z,93.09
2023-02-19T01:50:08.890Z,93.08
2023-02-19T01:50:22.646Z,92.94
2023-02-19T01:50:40.852Z,93.19
2023-02-19T01:51:04.661Z,93.32
2023-02-19T01:51:20.789Z,93.16
2023-02-19T01:51:35.125Z,92.70
2023-02-19T01:52:04.261Z,92.64
2023-02-19T01:52:22.021Z,92.33
2023-02-19T01:52:36.835Z,92.43
2023-02-19T01:52:48.768Z,92.52
2023-02-19T01:53:05.413Z,92.44
2023-02-19T01:53:21.106Z,92.54
2023-02-19T01:53:37.858Z,92.66
2023-02-19T01:53:55.847Z,92.44
2023-02-19T01:54:10.026Z,92.46
2023-02-19T01:54:25.030Z,92.11
2023-02-19T01:54:40.348Z,92.22
2023-02-19T01:54:53.914Z,92.02
2023-02-19T01:55:10.657Z,91.73
2023-02-19T01:55:23.549Z,91.67
2023-02-19T01:55:35.718Z,91.62
2023-02-19T01:55:52.211Z,91.66
2023-02-19T01:56:06.792Z,91.94
2023-02-19T01:56:20.090Z,91.36
2023-02-19T01:56:34.839Z,91.43
2023-02-19T01:56:49.524Z,91.42
2023-02-19T01:57:06.798Z,91.29
2023-02-19T01:57:22.500Z,91.15
2023-02-19T01:57:40.610Z,91.04
2023-02-19T01:57:55.843Z,91.10
2023-02-19T01:58:09.269Z,91.06
2023-02-19T01:58:21.981Z,90.72
2023-02-19T01:58:36.441Z,90.73
2023-02-19T01:58:48.485Z,90.34
2023-02-19T01:59:01.442Z,90.08
2023-02-19T01:59:14.070Z,90.17
2023-02-19T01:59:26.268Z,90.39
2023-02-19T01:59:38.493Z,90.09
2023-02-19T01:59:57.612Z,90.02
2023-02-19T02:00:13.545Z,89.87
2023-02-19T02:00:25.956Z,89.66
2023-02-19T02:00:39.037Z,89.73
2023-02-19T02:00:51.788Z,90.11
2023-02-19T02:01:07.538Z,90.21
2023-02-19T02:01:19.764Z,90.67
2023-02-19T02:01:32.154Z,89.99
2023-02-19T02:01:44.955Z,89.90
2023-02-19T02:01:56.983Z,89.93
2023-02-19T02:02:09.355Z,89.83
2023-02-19T02:02:28.371Z,90.13
2023-02-19T02:02:42.769Z,90.33
2023-02-19T02:02:57.829Z,90.81
2023-02-19T02:03:10.497Z,90.77
2023-02-19T02:03:22.816Z,91.07
2023-02-19T02:03:38.058Z,91.47
2023-02-19T02:03:50.744Z,91.84
2023-02-19T02:04:04.052Z,92.01
2023-02-19T02:04:18.685Z,92.34
2023-02-19T02:04:32.973Z,92.51
2023-02-19T02:04:44.951Z,93.05
2023-02-19T02:05:00.142Z,93.49
2023-02-19T02:05:23.038Z,93.94
2023-02-19T02:05:54.819Z,94.07
2023-02-19T02:06:32.202Z,94.67
2023-02-19T02:06:51.805Z,94.36
2023-02-19T02:07:26.342Z,94.79
2023-02-19T02:07:56.767Z,94.58
2023-02-19T02:08:28.073Z,94.66
2023-02-19T02:08:58.543Z,94.35
2023-02-19T02:09:29.294Z,94.63
2023-02-19T02:09:59.424Z,95.11
2023-02-19T02:10:20.522Z,95.04
2023-02-19T02:10:32.455Z,95.43
2023-02-19T02:10:44.737Z,95.62
2023-02-19T02:10:57.624Z,95.79
2023-02-19T02:11:09.994Z,96.02
2023-02-19T02:11:22.077Z,96.07
2023-02-19T02:11:34.316Z,96.32
2023-02-19T02:11:49.644Z,96.74
2023-02-19T02:12:01.550Z,97.00
2023-02-19T02:12:14.011Z,96.84
2023-02-19T02:12:25.905Z,96.88
2023-02-19T02:12:37.822Z,97.04
2023-02-19T02:12:52.832Z,96.72
2023-02-19T02:13:04.843Z,96.57
2023-02-19T02:13:17.119Z,96.91
2023-02-19T02:13:29.430Z,97.17
2023-02-19T02:13:41.608Z,97.56
2023-02-19T02:13:54.154Z,97.65
2023-02-19T02:14:06.276Z,97.58
2023-02-19T02:14:21.957Z,97.62
2023-02-19T02:14:37.305Z,97.59
2023-02-19T02:14:49.283Z,97.63
2023-02-19T02:15:01.352Z,97.63
2023-02-19T02:15:16.276Z,97.47
2023-02-19T02:16:01.941Z,97.46
2023-02-19T02:16:51.400Z,97.70
2023-02-19T02:17:21.381Z,97.93
2023-02-19T02:17:58.251Z,98.22
2023-02-19T02:18:27.938Z,97.62
2023-02-19T02:18:47.273Z,97.53
2023-02-19T02:19:25.297Z,97.32
2023-02-19T02:20:13.090Z,97.44
2023-02-19T02:20:39.921Z,97.47
2023-02-19T02:21:11.493Z,97.27
2023-02-19T02:21:44.427Z,96.91
2023-02-19T02:22:06.818Z,97.10
2023-02-19T02:22:30.935Z,97.60
2023-02-19T02:22:56.506Z,97.33
2023-02-19T02:23:27.154Z,97.61
2023-02-19T02:24:03.106Z,97.25
2023-02-19T02:24:36.612Z,97.30
2023-02-19T02:25:16.398Z,97.16
2023-02-19T02:25:31.033Z,97.23
2023-02-19T02:26:28.964Z,97.34
2023-02-19T02:26:59.651Z,97.11
2023-02-19T02:27:39.343Z,97.00
2023-02-19T02:28:12.218Z,96.85
2023-02-19T02:28:46.313Z,96.49
2023-02-19T02:29:22.774Z,95.84
2023-02-19T02:30:05.190Z,96.37
2023-02-19T02:30:23.825Z,96.19
2023-02-19T02:30:46.133Z,96.13
2023-02-19T02:31:16.968Z,95.89
2023-02-19T02:31:32.872Z,95.71
2023-02-19T02:31:54.274Z,95.56
2023-02-19T02:32:17.884Z,95.50
2023-02-19T02:32:53.461Z,95.14
2023-02-19T02:33:11.329Z,94.89
2023-02-19T02:33:43.834Z,94.77
2023-02-19T02:34:04.699Z,94.41
2023-02-19T02:34:23.241Z,94.06
2023-02-19T02:34:45.758Z,93.90
2023-02-19T02:35:07.904Z,93.63
2023-02-19T02:35:27.811Z,93.60
2023-02-19T02:35:46.190Z,93.53
2023-02-19T02:36:00.452Z,93.11
2023-02-19T02:36:24.933Z,93.42
2023-02-19T02:36:44.022Z,93.41
2023-02-19T02:36:59.470Z,93.48
2023-02-19T02:37:12.265Z,93.35
2023-02-19T02:37:27.793Z,93.57
2023-02-19T02:37:43.565Z,93.59
2023-02-19T02:38:00.565Z,92.88
2023-02-19T02:38:15.060Z,92.33
2023-02-19T02:38:31.691Z,91.92
2023-02-19T02:38:46.600Z,92.03
2023-02-19T02:39:01.395Z,91.71
2023-02-19T02:39:17.407Z,91.58
2023-02-19T02:39:32.182Z,91.83
2023-02-19T02:39:46.747Z,91.89
2023-02-19T02:40:00.386Z,91.70
2023-02-19T02:40:12.748Z,91.77
2023-02-19T02:40:25.471Z,91.82
2023-02-19T02:40:43.013Z,91.44
2023-02-19T02:40:56.615Z,91.23
2023-02-19T02:41:09.387Z,91.09
2023-02-19T02:41:21.844Z,91.17
2023-02-19T02:41:34.135Z,91.17
2023-02-19T02:42:13.538Z,91.34
2023-02-19T02:42:29.075Z,90.94
2023-02-19T02:42:41.043Z,91.05
2023-02-19T02:42:52.972Z,91.35
2023-02-19T02:43:04.852Z,91.53
2023-02-19T02:43:16.802Z,91.30
2023-02-19T02:43:28.961Z,91.04
2023-02-19T02:43:40.962Z,90.98
2023-02-19T02:43:52.890Z,90.89
2023-02-19T02:44:04.987Z,90.80
2023-02-19T02:44:16.914Z,90.99
2023-02-19T02:44:36.262Z,90.82
2023-02-19T02:45:06.991Z,90.80
2023-02-19T02:45:37.602Z,91.24
2023-02-19T02:45:49.810Z,91.08
2023-02-19T02:46:01.758Z,91.09
2023-02-19T02:46:19.302Z,91.09
2023-02-19T02:46:37.319Z,91.24
2023-02-19T02:46:49.209Z,91.12
2023-02-19T02:47:01.152Z,90.94
2023-02-19T02:47:33.158Z,90.61
2023-02-19T02:47:50.787Z,89.94
2023-02-19T02:48:05.995Z,89.82
2023-02-19T02:48:17.978Z,90.25
2023-02-19T02:48:53.674Z,90.16
2023-02-19T02:49:09.527Z,90.20
2023-02-19T02:49:23.835Z,90.33
2023-02-19T02:49:55.818Z,90.48
2023-02-19T02:50:11.744Z,89.99
2023-02-19T02:50:34.367Z,90.25
2023-02-19T02:50:49.759Z,90.13
2023-02-19T02:51:10.400Z,89.98
2023-02-19T02:51:48.852Z,89.83
2023-02-19T02:52:21.750Z,89.70
2023-02-19T02:52:57.217Z,89.62
2023-02-19T02:53:35.675Z,89.92
2023-02-19T02:54:31.714Z,89.66
2023-02-19T02:55:02.847Z,89.69
2023-02-19T02:55:14.802Z,90.27
2023-02-19T02:55:31.433Z,90.31
2023-02-19T02:55:46.751Z,90.61
2023-02-19T02:56:00.359Z,90.00
2023-02-19T02:56:15.418Z,89.92
2023-02-19T02:56:28.868Z,89.70
2023-02-19T02:56:42.709Z,89.60
2023-02-19T02:56:56.482Z,89.58
2023-02-19T02:57:14.598Z,89.44
2023-02-19T02:57:26.576Z,89.70
2023-02-19T02:57:38.644Z,89.43
2023-02-19T02:57:50.715Z,89.62
2023-02-19T02:58:03.075Z,89.72
2023-02-19T02:58:16.790Z,89.66
2023-02-19T02:58:30.618Z,89.55
2023-02-19T02:58:43.756Z,89.77
2023-02-19T02:58:58.262Z,89.66
2023-02-19T02:59:12.632Z,89.73
2023-02-19T02:59:28.842Z,89.63
2023-02-19T02:59:42.825Z,89.65
2023-02-19T02:59:54.841Z,89.39
2023-02-19T03:00:13.261Z,89.02
2023-02-19T03:00:48.782Z,89.48
2023-02-19T03:01:29.386Z,89.49
2023-02-19T03:02:10.914Z,89.65
2023-02-19T03:02:27.870Z,89.74
2023-02-19T03:02:42.585Z,89.28
2023-02-19T03:02:56.447Z,89.22
2023-02-19T03:03:08.654Z,88.97
2023-02-19T03:03:23.132Z,88.75
2023-02-19T03:03:39.825Z,89.06
2023-02-19T03:03:58.153Z,88.79
2023-02-19T03:04:14.430Z,88.64
2023-02-19T03:05:03.660Z,88.67
2023-02-19T03:05:38.507Z,89.15
2023-02-19T03:05:56.084Z,88.76
2023-02-19T03:06:15.365Z,88.34
2023-02-19T03:06:31.247Z,88.70
2023-02-19T03:06:46.804Z,88.88
2023-02-19T03:07:04.683Z,88.74
2023-02-19T03:07:16.947Z,88.93
2023-02-19T03:07:36.107Z,89.08
2023-02-19T03:07:56.508Z,88.93
2023-02-19T03:08:29.504Z,88.98
2023-02-19T03:08:47.959Z,88.66
2023-02-19T03:09:11.430Z,88.46
2023-02-19T03:09:43.051Z,88.12
2023-02-19T03:09:58.351Z,88.30
2023-02-19T03:10:15.157Z,88.35
2023-02-19T03:10:34.895Z,88.32
2023-02-19T03:11:23.948Z,88.09
2023-02-19T03:11:58.210Z,88.67
2023-02-19T03:12:34.167Z,89.08
2023-02-19T03:13:06.148Z,88.99
2023-02-19T03:13:46.083Z,88.22
2023-02-19T03:14:34.233Z,88.44
2023-02-19T03:15:08.567Z,88.78
2023-02-19T03:15:41.860Z,88.42
2023-02-19T03:16:21.327Z,88.39
2023-02-19T03:16:56.356Z,88.59
2023-02-19T03:17:35.095Z,88.63
2023-02-19T03:18:14.017Z,88.64
2023-02-19T03:18:48.802Z,88.31
2023-02-19T03:19:19.625Z,88.79
2023-02-19T03:19:37.788Z,89.35
2023-02-19T03:19:54.440Z,88.94
2023-02-19T03:20:11.338Z,88.98